createdAt,value
2018-12-21T00:01:07.280Z,21.50
2018-12-21T00:03:35.642Z,21.50
2018-12-21T00:06:04.010Z,21.50
2018-12-21T00:08:32.367Z,21.40
2018-12-21T00:11:00.731Z,21.40
2018-12-21T00:13:29.111Z,21.30
2018-12-21T00:15:57.493Z,21.30
2018-12-21T00:18:25.837Z,21.30
2018-12-21T00:20:54.204Z,21.20
2018-12-21T00:23:22.586Z,21.20
2018-12-21T00:25:50.939Z,21.10
2018-12-21T00:28:19.300Z,21.10
2018-12-21T00:30:47.886Z,21.10
2018-12-21T00:33:21.654Z,21.10
2018-12-21T00:35:55.283Z,21.00
2018-12-21T00:38:29.420Z,21.00
2018-12-21T00:41:03.160Z,20.90
2018-12-21T00:43:36.787Z,20.90
2018-12-21T00:46:13.636Z,20.90
2018-12-21T00:48:42.244Z,20.80
2018-12-21T00:51:10.600Z,20.80
2018-12-21T00:53:39.063Z,20.80
2018-12-21T00:56:07.443Z,20.70
2018-12-21T00:58:35.798Z,20.70
2018-12-21T01:01:04.267Z,20.70
2018-12-21T01:03:32.625Z,20.70
2018-12-21T01:06:01.066Z,20.60
2018-12-21T01:08:29.433Z,20.60
2018-12-21T01:10:57.796Z,20.60
2018-12-21T01:13:26.166Z,20.50
2018-12-21T01:15:54.562Z,20.50
2018-12-21T01:18:23.533Z,20.50
2018-12-21T01:20:51.908Z,20.50
2018-12-21T01:23:20.261Z,20.40
2018-12-21T01:25:50.646Z,20.40
2018-12-21T01:28:19.013Z,20.40
2018-12-21T01:30:47.376Z,20.40
2018-12-21T01:33:15.746Z,20.30
2018-12-21T01:35:44.674Z,20.30
2018-12-21T01:38:13.044Z,20.30
2018-12-21T01:40:41.402Z,20.30
2018-12-21T01:43:09.997Z,20.20
2018-12-21T01:45:38.363Z,20.20
2018-12-21T01:48:06.732Z,20.20
2018-12-21T01:50:35.091Z,20.20
2018-12-21T01:53:03.450Z,20.20
2018-12-21T01:55:31.816Z,20.10
2018-12-21T01:58:00.159Z,20.10
2018-12-21T02:00:28.512Z,20.00
2018-12-21T02:02:56.894Z,20.00
2018-12-21T02:05:25.228Z,20.00
2018-12-21T02:07:53.588Z,20.00
2018-12-21T02:10:21.932Z,19.90
2018-12-21T02:12:50.276Z,20.00
2018-12-21T02:15:18.653Z,19.90
2018-12-21T02:17:46.984Z,19.90
2018-12-21T02:20:15.358Z,19.90
2018-12-21T02:22:43.731Z,19.90
2018-12-21T02:25:12.096Z,19.90
2018-12-21T02:27:40.448Z,19.90
2018-12-21T02:30:08.791Z,19.80
2018-12-21T02:32:37.150Z,19.80
2018-12-21T02:35:05.876Z,19.80
2018-12-21T02:37:34.274Z,19.80
2018-12-21T02:40:02.800Z,19.80
2018-12-21T02:42:31.168Z,19.80
2018-12-21T02:44:59.537Z,19.80
2018-12-21T02:47:28.119Z,19.70
2018-12-21T02:49:56.492Z,19.70
2018-12-21T02:52:24.844Z,19.60
2018-12-21T02:54:53.216Z,19.60
2018-12-21T02:57:21.574Z,19.60
2018-12-21T02:59:50.379Z,19.60
2018-12-21T03:02:18.770Z,19.60
2018-12-21T03:04:47.126Z,19.60
2018-12-21T03:07:15.490Z,19.60
2018-12-21T03:09:43.866Z,19.60
2018-12-21T03:12:12.223Z,19.60
2018-12-21T03:14:40.600Z,19.60
2018-12-21T03:17:08.951Z,19.50
2018-12-21T03:19:37.330Z,19.50
2018-12-21T03:22:14.297Z,19.50
2018-12-21T03:24:36.172Z,19.50
2018-12-21T03:27:04.531Z,19.50
2018-12-21T03:29:32.893Z,19.40
2018-12-21T03:32:01.237Z,19.50
2018-12-21T03:34:29.633Z,19.40
2018-12-21T03:36:58.094Z,19.40
2018-12-21T03:39:26.451Z,19.40
2018-12-21T03:41:54.818Z,19.40
2018-12-21T03:44:23.208Z,19.30
2018-12-21T03:46:51.557Z,19.30
2018-12-21T03:49:19.918Z,19.30
2018-12-21T03:51:48.281Z,19.30
2018-12-21T03:54:16.625Z,19.30
2018-12-21T03:56:45.018Z,19.20
2018-12-21T03:59:13.379Z,19.20
2018-12-21T04:01:41.740Z,19.20
2018-12-21T04:04:10.122Z,19.30
2018-12-21T04:06:38.470Z,19.30
2018-12-21T04:09:07.076Z,19.20
2018-12-21T04:11:35.430Z,19.20
2018-12-21T04:14:03.814Z,19.20
2018-12-21T04:16:32.280Z,19.20
2018-12-21T04:19:00.629Z,19.20
2018-12-21T04:21:29.039Z,19.20
2018-12-21T04:23:57.403Z,19.20
2018-12-21T04:26:25.763Z,19.20
2018-12-21T04:28:54.108Z,19.10
2018-12-21T04:31:22.458Z,19.10
2018-12-21T04:33:50.830Z,19.10
2018-12-21T04:36:19.201Z,19.10
2018-12-21T04:38:47.575Z,19.10
2018-12-21T04:41:15.942Z,19.00
2018-12-21T04:43:44.287Z,19.00
2018-12-21T04:46:12.627Z,19.00
2018-12-21T04:48:41.000Z,19.00
2018-12-21T04:51:09.347Z,19.00
2018-12-21T04:53:37.714Z,19.00
2018-12-21T04:56:06.082Z,19.00
2018-12-21T04:58:34.454Z,19.00
2018-12-21T05:01:02.824Z,19.00
2018-12-21T05:03:31.198Z,19.00
2018-12-21T05:05:59.549Z,19.00
2018-12-21T05:08:27.975Z,19.00
2018-12-21T05:10:56.335Z,18.90
2018-12-21T05:13:24.702Z,18.90
2018-12-21T05:15:53.049Z,18.90
2018-12-21T05:18:21.494Z,18.90
2018-12-21T05:20:49.867Z,18.90
2018-12-21T05:23:18.218Z,18.90
2018-12-21T05:25:46.576Z,18.90
2018-12-21T05:28:14.962Z,18.90
2018-12-21T05:30:43.326Z,18.80
2018-12-21T05:33:11.699Z,18.90
2018-12-21T05:35:40.056Z,18.90
2018-12-21T05:38:08.410Z,18.90
2018-12-21T05:40:36.775Z,18.90
2018-12-21T05:43:05.142Z,18.90
2018-12-21T05:45:33.518Z,19.00
2018-12-21T05:48:03.470Z,19.00
2018-12-21T05:50:31.832Z,19.00
2018-12-21T05:53:00.819Z,19.10
2018-12-21T05:55:29.683Z,19.10
2018-12-21T05:57:58.031Z,19.20
2018-12-21T06:00:26.509Z,19.20
2018-12-21T06:02:54.886Z,19.30
2018-12-21T06:05:23.229Z,19.30
2018-12-21T06:07:51.588Z,19.30
2018-12-21T06:10:19.946Z,19.40
2018-12-21T06:12:48.346Z,19.40
2018-12-21T06:15:16.706Z,19.40
2018-12-21T06:17:45.062Z,19.50
2018-12-21T06:20:13.438Z,19.60
2018-12-21T06:22:41.951Z,19.60
2018-12-21T06:25:10.307Z,19.60
2018-12-21T06:27:38.682Z,19.60
2018-12-21T06:30:07.534Z,19.70
2018-12-21T06:32:35.905Z,19.70
2018-12-21T06:35:04.294Z,19.70
2018-12-21T06:37:32.699Z,19.70
2018-12-21T06:40:01.138Z,19.70
2018-12-21T06:42:32.805Z,19.70
2018-12-21T06:45:01.182Z,19.70
2018-12-21T06:47:29.540Z,19.70
2018-12-21T06:49:57.906Z,19.70
2018-12-21T06:52:26.275Z,19.60
2018-12-21T06:54:54.690Z,19.60
2018-12-21T06:57:23.061Z,19.60
2018-12-21T06:59:51.444Z,19.60
2018-12-21T07:02:19.824Z,19.60
2018-12-21T07:04:48.210Z,19.50
2018-12-21T07:07:16.631Z,19.50
2018-12-21T07:09:45.025Z,19.50
2018-12-21T07:12:13.499Z,19.40
2018-12-21T07:15:12.822Z,19.40
2018-12-21T07:17:41.205Z,19.40
2018-12-21T07:20:09.781Z,19.30
2018-12-21T07:22:38.363Z,19.30
2018-12-21T07:25:07.999Z,19.30
2018-12-21T07:27:36.340Z,19.30
2018-12-21T07:30:06.601Z,19.30
2018-12-21T07:32:35.522Z,19.30
2018-12-21T07:35:03.888Z,19.20
2018-12-21T07:37:32.249Z,19.20
2018-12-21T07:40:00.614Z,19.20
2018-12-21T07:42:29.042Z,19.20
2018-12-21T07:44:57.427Z,19.10
2018-12-21T07:47:25.784Z,19.10
2018-12-21T07:49:54.143Z,19.10
2018-12-21T07:52:22.522Z,19.10
2018-12-21T07:54:50.876Z,19.10
2018-12-21T07:57:19.229Z,19.00
2018-12-21T07:59:47.594Z,19.00
2018-12-21T08:02:16.772Z,19.00
2018-12-21T08:04:45.154Z,19.00
2018-12-21T08:07:13.526Z,19.00
2018-12-21T08:09:41.875Z,19.00
2018-12-21T08:12:10.230Z,19.00
2018-12-21T08:14:38.625Z,18.90
2018-12-21T08:17:06.967Z,18.90
2018-12-21T08:19:35.328Z,18.90
2018-12-21T08:22:03.691Z,18.90
2018-12-21T08:24:32.038Z,18.90
2018-12-21T08:27:00.409Z,18.90
2018-12-21T08:29:28.766Z,18.90
2018-12-21T08:31:57.134Z,18.80
2018-12-21T08:34:25.499Z,18.80
2018-12-21T08:36:53.845Z,18.80
2018-12-21T08:39:22.227Z,18.80
2018-12-21T08:41:51.030Z,18.80
2018-12-21T08:44:19.372Z,18.80
2018-12-21T08:46:47.757Z,18.80
2018-12-21T08:49:16.108Z,18.80
2018-12-21T08:51:44.439Z,18.80
2018-12-21T08:54:12.810Z,18.80
2018-12-21T08:56:41.180Z,18.70
2018-12-21T08:59:09.596Z,18.70
2018-12-21T09:01:37.966Z,18.70
2018-12-21T09:04:06.335Z,18.70
2018-12-21T09:06:34.701Z,18.70
2018-12-21T09:09:04.373Z,18.70
2018-12-21T09:11:32.754Z,18.70
2018-12-21T09:14:01.112Z,18.70
2018-12-21T09:16:29.494Z,18.70
2018-12-21T09:18:57.866Z,18.70
2018-12-21T09:21:26.239Z,18.70
2018-12-21T09:24:01.121Z,18.70
2018-12-21T09:26:24.956Z,18.60
2018-12-21T09:28:53.339Z,18.60
2018-12-21T09:31:21.700Z,18.60
2018-12-21T09:33:50.069Z,18.60
2018-12-21T09:36:18.759Z,18.60
2018-12-21T09:38:47.117Z,18.60
2018-12-21T09:41:15.466Z,18.60
2018-12-21T09:43:43.817Z,18.60
2018-12-21T09:46:12.203Z,18.60
2018-12-21T09:48:40.548Z,18.60
2018-12-21T09:51:08.899Z,18.50
2018-12-21T09:53:37.256Z,18.50
2018-12-21T09:56:05.637Z,18.60
2018-12-21T09:58:33.994Z,18.60
2018-12-21T10:01:02.351Z,18.60
2018-12-21T10:03:30.690Z,18.60
2018-12-21T10:05:59.054Z,18.60
2018-12-21T10:08:27.423Z,18.60
2018-12-21T10:10:55.816Z,18.60
2018-12-21T10:13:24.296Z,18.60
2018-12-21T10:15:52.679Z,18.60
2018-12-21T10:18:21.055Z,18.60
2018-12-21T10:20:49.415Z,18.60
2018-12-21T10:23:17.833Z,18.60
2018-12-21T10:25:46.251Z,18.60
2018-12-21T10:28:14.677Z,18.50
2018-12-21T10:30:43.044Z,18.50
2018-12-21T10:33:11.426Z,18.50
2018-12-21T10:35:40.693Z,18.50
2018-12-21T10:38:09.051Z,18.50
2018-12-21T10:40:37.896Z,18.40
2018-12-21T10:43:06.260Z,18.40
2018-12-21T10:45:41.653Z,18.40
2018-12-21T10:48:05.117Z,18.50
2018-12-21T10:50:33.500Z,18.40
2018-12-21T10:53:01.878Z,18.50
2018-12-21T10:55:30.247Z,18.50
2018-12-21T10:57:58.597Z,18.50
2018-12-21T11:00:26.965Z,18.50
2018-12-21T11:02:55.325Z,18.50
2018-12-21T11:05:23.678Z,18.60
2018-12-21T11:07:52.188Z,18.60
2018-12-21T11:10:20.579Z,18.50
2018-12-21T11:12:48.932Z,18.60
2018-12-21T11:15:17.314Z,18.50
2018-12-21T11:17:45.679Z,18.50
2018-12-21T11:20:14.132Z,18.50
2018-12-21T11:22:42.497Z,18.50
2018-12-21T11:25:12.286Z,18.50
2018-12-21T11:27:40.643Z,18.40
2018-12-21T11:30:09.187Z,18.40
2018-12-21T11:32:37.560Z,18.40
2018-12-21T11:35:05.912Z,18.30
2018-12-21T11:37:34.267Z,18.30
2018-12-21T11:40:02.646Z,18.30
2018-12-21T11:42:30.984Z,18.40
2018-12-21T11:44:59.345Z,18.40
2018-12-21T11:47:27.695Z,18.40
2018-12-21T11:49:56.175Z,18.40
2018-12-21T11:52:24.539Z,18.50
2018-12-21T11:54:52.937Z,18.50
2018-12-21T11:57:21.276Z,18.60
2018-12-21T11:59:50.052Z,18.60
2018-12-21T12:02:19.798Z,18.60
2018-12-21T12:04:48.260Z,18.60
2018-12-21T12:07:17.058Z,18.60
2018-12-21T12:09:45.407Z,18.60
2018-12-21T12:12:13.864Z,18.60
2018-12-21T12:14:42.267Z,18.60
2018-12-21T12:17:10.615Z,18.50
2018-12-21T12:19:38.976Z,18.50
2018-12-21T12:22:07.322Z,18.50
2018-12-21T12:24:35.703Z,18.40
2018-12-21T12:27:04.194Z,18.30
2018-12-21T12:29:32.562Z,18.30
2018-12-21T12:32:00.938Z,18.30
2018-12-21T12:34:29.321Z,18.40
2018-12-21T12:36:58.113Z,18.30
2018-12-21T12:39:26.674Z,18.30
2018-12-21T12:41:55.076Z,18.40
2018-12-21T12:44:23.443Z,18.40
2018-12-21T12:46:51.811Z,18.40
2018-12-21T12:49:20.202Z,18.50
2018-12-21T12:51:48.636Z,18.50
2018-12-21T12:54:17.082Z,18.50
2018-12-21T12:56:45.504Z,18.50
2018-12-21T12:59:14.913Z,18.50
2018-12-21T13:01:43.485Z,18.50
2018-12-21T13:04:11.836Z,18.50
2018-12-21T13:06:40.191Z,18.50
2018-12-21T13:09:08.589Z,18.50
2018-12-21T13:11:37.620Z,18.50
2018-12-21T13:14:06.010Z,18.50
2018-12-21T13:16:34.391Z,18.40
2018-12-21T13:19:02.751Z,18.40
2018-12-21T13:21:31.191Z,18.30
2018-12-21T13:23:59.565Z,18.30
2018-12-21T13:26:27.922Z,18.30
2018-12-21T13:28:56.309Z,18.30
2018-12-21T13:31:25.495Z,18.30
2018-12-21T13:33:53.852Z,18.30
2018-12-21T13:36:22.216Z,18.30
2018-12-21T13:38:50.590Z,18.30
2018-12-21T13:41:19.373Z,18.30
2018-12-21T13:43:47.732Z,18.40
2018-12-21T13:46:16.076Z,18.40
2018-12-21T13:48:45.051Z,18.40
2018-12-21T13:51:13.400Z,18.40
2018-12-21T13:53:41.787Z,18.50
2018-12-21T13:56:10.138Z,18.50
2018-12-21T13:58:38.506Z,18.50
2018-12-21T14:01:07.582Z,18.50
2018-12-21T14:03:35.966Z,18.50
2018-12-21T14:06:04.340Z,18.50
2018-12-21T14:08:32.700Z,18.40
2018-12-21T14:11:01.063Z,18.40
2018-12-21T14:13:29.403Z,18.30
2018-12-21T14:15:57.774Z,18.30
2018-12-21T14:18:26.145Z,18.30
2018-12-21T14:20:54.522Z,18.20
2018-12-21T14:23:22.887Z,18.20
2018-12-21T14:25:51.266Z,18.20
2018-12-21T14:28:19.634Z,18.20
2018-12-21T14:30:48.017Z,18.20
2018-12-21T14:33:16.379Z,18.30
2018-12-21T14:35:44.773Z,18.30
2018-12-21T14:38:13.130Z,18.30
2018-12-21T14:40:41.487Z,18.40
2018-12-21T14:43:09.852Z,18.40
2018-12-21T14:45:38.249Z,18.40
2018-12-21T14:48:06.590Z,18.40
2018-12-21T14:50:34.964Z,18.40
2018-12-21T14:53:03.334Z,18.40
2018-12-21T14:55:37.394Z,18.40
2018-12-21T14:58:02.070Z,18.50
2018-12-21T15:00:30.461Z,18.40
2018-12-21T15:02:58.824Z,18.40
2018-12-21T15:05:27.188Z,18.40
2018-12-21T15:07:55.558Z,18.30
2018-12-21T15:10:23.906Z,18.30
2018-12-21T15:12:52.268Z,18.20
2018-12-21T15:15:20.618Z,18.20
2018-12-21T15:17:48.999Z,18.20
2018-12-21T15:20:17.371Z,18.10
2018-12-21T15:22:45.727Z,18.20
2018-12-21T15:25:14.106Z,18.10
2018-12-21T15:27:42.484Z,18.20
2018-12-21T15:30:11.682Z,18.10
2018-12-21T15:32:40.062Z,18.20
2018-12-21T15:35:10.212Z,18.20
2018-12-21T15:37:40.662Z,18.30
2018-12-21T15:40:09.052Z,18.50
2018-12-21T15:42:37.391Z,18.70
2018-12-21T15:45:06.870Z,18.90
2018-12-21T15:47:35.276Z,19.10
2018-12-21T15:50:04.288Z,19.30
2018-12-21T15:52:33.445Z,19.50
2018-12-21T15:55:01.835Z,19.70
2018-12-21T15:57:31.661Z,19.90
2018-12-21T16:00:01.019Z,20.10
2018-12-21T16:02:29.655Z,20.20
2018-12-21T16:04:58.056Z,20.40
2018-12-21T16:07:26.532Z,20.50
2018-12-21T16:09:54.903Z,20.70
2018-12-21T16:12:23.320Z,20.80
2018-12-21T16:14:51.697Z,21.00
2018-12-21T16:17:20.081Z,21.20
2018-12-21T16:19:48.481Z,21.30
2018-12-21T16:22:16.850Z,21.50
2018-12-21T16:24:45.295Z,21.60
2018-12-21T16:27:13.691Z,21.70
2018-12-21T16:29:42.067Z,21.70
2018-12-21T16:32:10.461Z,21.60
2018-12-21T16:34:40.040Z,21.50
2018-12-21T16:37:08.419Z,21.50
2018-12-21T16:39:36.787Z,21.50
2018-12-21T16:42:05.714Z,21.70
2018-12-21T16:44:34.086Z,21.80
2018-12-21T16:47:02.442Z,22.00
2018-12-21T16:49:30.818Z,22.20
2018-12-21T16:51:59.198Z,22.30
2018-12-21T16:54:27.566Z,22.40
2018-12-21T16:56:55.940Z,22.50
2018-12-21T16:59:24.330Z,22.60
2018-12-21T17:01:52.790Z,22.80
2018-12-21T17:04:21.147Z,22.80
2018-12-21T17:06:49.519Z,23.00
2018-12-21T17:09:18.470Z,23.10
2018-12-21T17:11:46.830Z,23.20
2018-12-21T17:14:15.210Z,23.20
2018-12-21T17:16:43.606Z,23.10
2018-12-21T17:19:16.238Z,23.10
2018-12-21T17:21:44.656Z,23.10
2018-12-21T17:24:13.021Z,23.00
2018-12-21T17:26:41.593Z,23.00
2018-12-21T17:29:09.938Z,23.00
2018-12-21T17:31:38.341Z,23.10
2018-12-21T17:34:06.723Z,23.00
2018-12-21T17:36:35.083Z,23.10
2018-12-21T17:39:05.428Z,23.10
2018-12-21T17:41:34.916Z,23.20
2018-12-21T17:44:03.969Z,23.30
2018-12-21T17:46:32.382Z,23.30
2018-12-21T17:49:00.732Z,23.40
2018-12-21T17:51:29.146Z,23.50
2018-12-21T17:53:57.571Z,23.50
2018-12-21T17:56:29.824Z,23.50
2018-12-21T17:58:56.348Z,23.50
2018-12-21T18:01:25.364Z,23.50
2018-12-21T18:04:04.259Z,23.50
2018-12-21T18:06:33.380Z,23.50
2018-12-21T18:09:01.843Z,23.50
2018-12-21T18:11:30.252Z,23.50
2018-12-21T18:13:58.654Z,23.50
2018-12-21T18:16:27.031Z,23.50
2018-12-21T18:18:55.406Z,23.50
2018-12-21T18:21:23.970Z,23.50
2018-12-21T18:23:52.328Z,23.60
2018-12-21T18:26:20.684Z,23.50
2018-12-21T18:28:49.074Z,23.50
2018-12-21T18:31:23.235Z,23.60
2018-12-21T18:33:51.627Z,23.50
2018-12-21T18:36:20.029Z,23.50
2018-12-21T18:38:48.381Z,23.60
2018-12-21T18:41:16.755Z,23.50
2018-12-21T18:43:45.119Z,23.50
2018-12-21T18:46:13.478Z,23.50
2018-12-21T18:48:41.855Z,23.50
2018-12-21T18:51:10.234Z,23.50
2018-12-21T18:53:38.592Z,23.50
2018-12-21T18:56:09.778Z,23.50
2018-12-21T18:58:38.155Z,23.50
2018-12-21T19:01:06.500Z,23.50
2018-12-21T19:03:34.890Z,23.50
2018-12-21T19:06:03.282Z,23.50
2018-12-21T19:08:31.640Z,23.50
2018-12-21T19:11:00.023Z,23.40
2018-12-21T19:13:28.491Z,23.50
2018-12-21T19:15:56.839Z,23.50
2018-12-21T19:18:25.192Z,23.50
2018-12-21T19:20:53.784Z,23.50
2018-12-21T19:23:22.185Z,23.40
2018-12-21T19:25:50.916Z,23.40
2018-12-21T19:28:19.294Z,23.50
2018-12-21T19:30:47.668Z,23.50
2018-12-21T19:33:16.054Z,23.50
2018-12-21T19:35:44.538Z,23.50
2018-12-21T19:41:12.014Z,23.50
2018-12-21T19:43:40.452Z,23.50
2018-12-21T19:46:09.379Z,23.50
2018-12-21T19:48:37.742Z,23.50
2018-12-21T19:51:06.103Z,23.50
2018-12-21T19:53:34.503Z,23.60
2018-12-21T19:56:08.744Z,23.80
2018-12-21T19:58:37.186Z,23.80
2018-12-21T20:01:05.573Z,23.70
2018-12-21T20:03:34.019Z,23.70
2018-12-21T20:06:02.384Z,23.60
2018-12-21T20:08:30.756Z,23.60
2018-12-21T20:10:59.131Z,23.60
2018-12-21T20:13:27.491Z,23.60
2018-12-21T20:15:55.845Z,23.60
2018-12-21T20:18:24.238Z,23.60
2018-12-21T20:20:52.604Z,23.60
2018-12-21T20:23:20.978Z,23.60
2018-12-21T20:25:49.368Z,23.60
2018-12-21T20:28:17.743Z,23.60
2018-12-21T20:30:46.115Z,23.60
2018-12-21T20:33:14.810Z,23.70
2018-12-21T20:35:43.440Z,23.70
2018-12-21T20:38:11.804Z,23.70
2018-12-21T20:40:40.398Z,23.70
2018-12-21T20:43:08.860Z,23.70
2018-12-21T20:45:37.212Z,23.70
2018-12-21T20:48:05.611Z,23.70
2018-12-21T20:50:34.080Z,23.80
2018-12-21T20:53:02.494Z,23.80
2018-12-21T20:55:30.874Z,23.80
2018-12-21T20:58:04.659Z,23.80
2018-12-21T21:00:40.010Z,23.80
2018-12-21T21:03:10.445Z,23.80
2018-12-21T21:05:39.735Z,23.80
2018-12-21T21:08:08.595Z,23.80
2018-12-21T21:10:36.968Z,23.80
2018-12-21T21:13:05.319Z,23.80
2018-12-21T21:15:33.670Z,23.80
2018-12-21T21:18:03.004Z,23.70
2018-12-21T21:20:32.215Z,23.60
2018-12-21T21:23:00.584Z,23.40
2018-12-21T21:25:28.980Z,23.50
2018-12-21T21:27:57.335Z,23.40
2018-12-21T21:30:26.999Z,23.30
2018-12-21T21:32:55.398Z,23.20
2018-12-21T21:35:23.929Z,23.10
2018-12-21T21:37:52.289Z,23.00
2018-12-21T21:40:20.672Z,22.90
2018-12-21T21:42:57.225Z,22.90
2018-12-21T21:45:19.745Z,22.90
2018-12-21T21:47:48.179Z,22.80
2018-12-21T21:50:16.686Z,23.00
2018-12-21T21:52:46.218Z,23.00
2018-12-21T21:55:14.599Z,23.10
2018-12-21T21:57:42.982Z,23.10
2018-12-21T22:00:13.138Z,23.10
2018-12-21T22:02:41.978Z,23.10
2018-12-21T22:05:10.370Z,23.10
2018-12-21T22:07:38.715Z,23.10
2018-12-21T22:10:09.440Z,23.10
2018-12-21T22:12:37.794Z,23.10
2018-12-21T22:15:07.387Z,23.00
2018-12-21T22:17:35.806Z,23.00
2018-12-21T22:20:05.149Z,22.90
2018-12-21T22:22:33.507Z,22.90
2018-12-21T22:25:01.871Z,22.80
2018-12-21T22:27:30.243Z,22.80
2018-12-21T22:29:58.626Z,22.80
2018-12-21T22:32:27.018Z,22.70
2018-12-21T22:34:55.419Z,22.60
2018-12-21T22:37:23.780Z,22.60
2018-12-21T22:39:52.170Z,22.60
2018-12-21T22:42:20.667Z,22.50
2018-12-21T22:44:49.013Z,22.40
2018-12-21T22:47:17.462Z,22.40
2018-12-21T22:49:45.819Z,22.40
2018-12-21T22:52:14.165Z,22.30
2018-12-21T22:54:42.592Z,22.30
2018-12-21T22:57:10.936Z,22.30
2018-12-21T22:59:39.298Z,22.20
2018-12-21T23:02:07.666Z,22.20
2018-12-21T23:05:38.659Z,22.20
2018-12-21T23:08:07.015Z,22.10
2018-12-21T23:10:35.416Z,22.00
2018-12-21T23:13:03.794Z,22.00
2018-12-21T23:15:32.190Z,22.00
2018-12-21T23:18:01.129Z,22.00
2018-12-21T23:20:29.488Z,21.90
2018-12-21T23:22:57.930Z,21.90
2018-12-21T23:28:05.044Z,21.80
2018-12-21T23:30:32.128Z,21.80
2018-12-21T23:33:01.472Z,21.70
2018-12-21T23:35:29.837Z,21.70
2018-12-21T23:37:58.191Z,21.70
2018-12-21T23:40:26.554Z,21.70
2018-12-21T23:42:55.304Z,21.60
2018-12-21T23:45:23.677Z,21.60
2018-12-21T23:47:52.028Z,21.60
2018-12-21T23:50:20.407Z,21.50
2018-12-21T23:52:48.784Z,21.50
2018-12-21T23:55:17.137Z,21.40
2018-12-21T23:57:45.518Z,21.40
